createdAt,value
2023-02-21T00:00:33.486Z,191.23
2023-02-21T00:03:19.481Z,177.98
2023-02-21T00:06:04.683Z,184.23
2023-02-21T00:11:35.161Z,177.13
2023-02-21T00:14:20.367Z,183.20
2023-02-21T00:17:05.635Z,171.35
2023-02-21T00:22:36.135Z,179.50
2023-02-21T00:25:21.641Z,189.27
2023-02-21T00:28:07.018Z,194.27
2023-02-21T00:33:38.337Z,189.30
2023-02-21T00:36:23.564Z,201.27
2023-02-21T00:41:54.216Z,198.07
2023-02-21T00:44:39.385Z,210.23
2023-02-21T00:47:24.436Z,209.73
2023-02-21T00:50:09.588Z,241.40
2023-02-21T00:52:54.669Z,185.43
2023-02-21T00:55:39.955Z,215.15
2023-02-21T00:58:25.104Z,189.05
2023-02-21T01:01:10.349Z,247.25
2023-02-21T01:03:55.674Z,224.02
2023-02-21T01:06:40.741Z,251.35
2023-02-21T01:09:26.030Z,249.43
2023-02-21T01:12:11.512Z,249.55
2023-02-21T01:17:44.520Z,241.57
2023-02-21T01:20:29.973Z,236.88
2023-02-21T01:23:16.009Z,253.50
2023-02-21T01:26:01.325Z,249.20
2023-02-21T01:28:47.132Z,246.57
2023-02-21T01:31:39.410Z,253.95
2023-02-21T01:34:24.833Z,237.98
2023-02-21T01:37:11.283Z,281.27
2023-02-21T01:39:57.291Z,226.90
2023-02-21T01:42:42.594Z,279.60
2023-02-21T01:48:31.695Z,291.27
2023-02-21T01:51:19.528Z,300.45
2023-02-21T01:54:05.485Z,310.25
2023-02-21T01:56:51.198Z,240.15
2023-02-21T01:59:37.929Z,285.00
2023-02-21T02:02:36.991Z,299.98
2023-02-21T02:05:25.716Z,308.40
2023-02-21T02:08:12.561Z,299.70
2023-02-21T02:11:00.232Z,312.50
2023-02-21T02:13:26.881Z,275.70
2023-02-21T02:16:09.502Z,283.83
2023-02-21T02:19:15.173Z,285.73
2023-02-21T02:21:56.663Z,286.38
2023-02-21T02:24:51.590Z,305.17
2023-02-21T02:27:30.058Z,318.10
2023-02-21T02:30:05.715Z,302.33
2023-02-21T02:32:55.405Z,317.85
2023-02-21T02:35:37.633Z,322.80
2023-02-21T02:38:13.411Z,329.77
2023-02-21T02:40:47.151Z,342.10
2023-02-21T02:43:35.063Z,303.38
2023-02-21T02:46:10.630Z,342.75
2023-02-21T02:48:50.613Z,297.58
2023-02-21T02:51:17.934Z,301.00
2023-02-21T02:53:45.857Z,313.23
2023-02-21T02:56:14.840Z,306.15
2023-02-21T02:58:59.932Z,302.52
2023-02-21T03:01:44.657Z,336.30
2023-02-21T03:04:50.118Z,339.15
2023-02-21T03:07:34.529Z,346.02
2023-02-21T03:10:19.097Z,377.25
2023-02-21T03:12:57.453Z,358.60
2023-02-21T03:15:40.309Z,320.73
2023-02-21T03:18:16.587Z,386.92
2023-02-21T03:20:45.689Z,414.42
2023-02-21T03:23:15.671Z,319.02
2023-02-21T03:25:44.806Z,368.73
2023-02-21T03:28:12.540Z,388.25
2023-02-21T03:30:42.277Z,410.15
2023-02-21T03:33:09.581Z,422.55
2023-02-21T03:35:36.331Z,414.38
2023-02-21T03:38:04.133Z,485.17
2023-02-21T03:40:33.480Z,495.38
2023-02-21T03:43:05.181Z,409.60
2023-02-21T03:45:36.105Z,466.38
2023-02-21T03:48:09.591Z,548.75
2023-02-21T03:50:37.863Z,661.03
2023-02-21T03:53:05.018Z,641.00
2023-02-21T03:55:32.859Z,628.42
2023-02-21T03:58:02.947Z,577.58
2023-02-21T04:00:32.252Z,738.72
2023-02-21T04:02:58.995Z,682.85
2023-02-21T04:05:48.446Z,518.60
2023-02-21T04:08:15.196Z,602.83
2023-02-21T04:10:51.693Z,668.13
2023-02-21T04:13:20.434Z,674.30
2023-02-21T04:15:47.872Z,665.40
2023-02-21T04:18:14.629Z,673.17
2023-02-21T04:20:42.041Z,725.78
2023-02-21T04:23:15.573Z,706.90
2023-02-21T04:25:42.396Z,683.33
2023-02-21T04:28:14.920Z,637.22
2023-02-21T04:30:41.665Z,660.42
2023-02-21T04:33:09.005Z,775.83
2023-02-21T04:35:35.734Z,740.67
2023-02-21T04:38:08.448Z,788.92
2023-02-21T04:40:35.143Z,837.88
2023-02-21T04:43:01.748Z,890.30
2023-02-21T04:45:29.241Z,890.65
2023-02-21T04:47:55.917Z,950.05
2023-02-21T04:50:22.569Z,845.75
2023-02-21T04:52:49.263Z,854.88
2023-02-21T04:55:16.401Z,1028.65
2023-02-21T04:57:43.064Z,968.80
2023-02-21T05:00:11.252Z,1040.18
2023-02-21T05:02:37.916Z,1145.03
2023-02-21T05:05:04.705Z,929.35
2023-02-21T05:07:31.321Z,527.60
2023-02-21T05:09:57.975Z,956.67
2023-02-21T05:12:24.600Z,1046.90
2023-02-21T05:14:51.394Z,1133.40
2023-02-21T05:17:18.488Z,1023.95
2023-02-21T05:19:46.969Z,1138.05
2023-02-21T05:22:13.992Z,1118.28
2023-02-21T05:24:46.533Z,1021.08
2023-02-21T05:27:15.573Z,1051.07
2023-02-21T05:29:53.315Z,1104.35
2023-02-21T05:32:21.654Z,1279.50
2023-02-21T05:34:48.331Z,1127.20
2023-02-21T05:37:16.083Z,1219.50
2023-02-21T05:39:43.126Z,1198.22
2023-02-21T05:42:10.047Z,1120.20
2023-02-21T05:44:36.692Z,1150.30
2023-02-21T05:47:03.455Z,1113.45
2023-02-21T05:49:30.238Z,1278.55
2023-02-21T05:51:56.847Z,1220.07
2023-02-21T05:54:23.573Z,1021.47
2023-02-21T05:56:52.580Z,930.17
2023-02-21T05:59:20.675Z,1162.28
2023-02-21T06:01:48.469Z,1037.97
2023-02-21T06:04:15.261Z,1036.55
2023-02-21T06:06:42.147Z,1013.05
2023-02-21T06:09:09.548Z,1111.32
2023-02-21T06:11:38.721Z,1078.32
2023-02-21T06:14:15.309Z,999.83
2023-02-21T06:16:42.052Z,999.38
2023-02-21T06:19:10.183Z,1005.65
2023-02-21T06:21:37.108Z,827.22
2023-02-21T06:24:04.886Z,1069.63
2023-02-21T06:26:31.988Z,1073.25
2023-02-21T06:28:58.846Z,844.58
2023-02-21T06:31:26.013Z,1024.32
2023-02-21T06:33:52.749Z,909.05
2023-02-21T06:36:27.446Z,983.55
2023-02-21T06:38:56.113Z,774.60
2023-02-21T06:41:28.900Z,927.60
2023-02-21T06:43:56.840Z,924.08
2023-02-21T06:46:26.699Z,976.70
2023-02-21T06:48:53.385Z,1049.55
2023-02-21T06:51:20.649Z,968.10
2023-02-21T06:53:50.513Z,1029.85
2023-02-21T06:56:17.392Z,822.90
2023-02-21T06:58:44.064Z,876.03
2023-02-21T07:01:10.874Z,851.33
2023-02-21T07:03:43.100Z,784.97
2023-02-21T07:06:10.107Z,692.47
2023-02-21T07:08:36.865Z,703.78
2023-02-21T07:11:03.964Z,699.53
2023-02-21T07:13:30.656Z,733.92
2023-02-21T07:15:57.426Z,551.30
2023-02-21T07:18:24.045Z,638.90
2023-02-21T07:20:50.857Z,590.13
2023-02-21T07:23:17.570Z,524.42
2023-02-21T07:25:44.188Z,582.05
2023-02-21T07:28:12.401Z,545.28
2023-02-21T07:30:39.164Z,486.02
2023-02-21T07:33:06.188Z,427.27
2023-02-21T07:35:32.906Z,489.13
2023-02-21T07:37:59.511Z,495.25
2023-02-21T07:40:26.378Z,442.52
2023-02-21T07:42:52.968Z,457.08
2023-02-21T07:45:19.630Z,458.67
2023-02-21T07:47:48.115Z,445.40
2023-02-21T07:50:16.452Z,463.58
2023-02-21T07:52:43.639Z,408.48
2023-02-21T07:55:12.396Z,413.55
2023-02-21T07:57:39.205Z,445.40
2023-02-21T08:00:06.826Z,432.98
2023-02-21T08:02:39.727Z,424.45
2023-02-21T08:05:07.955Z,442.48
2023-02-21T08:07:34.795Z,421.58
2023-02-21T08:10:01.507Z,407.35
2023-02-21T08:12:28.138Z,448.77
2023-02-21T08:14:54.812Z,423.73
2023-02-21T08:17:21.541Z,418.65
2023-02-21T08:19:48.155Z,410.55
2023-02-21T08:22:14.810Z,382.20
2023-02-21T08:24:41.456Z,388.98
2023-02-21T08:27:08.300Z,406.17
2023-02-21T08:29:35.044Z,443.58
2023-02-21T08:32:02.127Z,448.17
2023-02-21T08:34:31.517Z,374.17
2023-02-21T08:36:58.178Z,420.23
2023-02-21T08:39:24.890Z,362.27
2023-02-21T08:41:52.382Z,394.27
2023-02-21T08:44:21.653Z,409.92
2023-02-21T08:46:49.850Z,426.85
2023-02-21T08:49:16.829Z,396.88
2023-02-21T08:51:43.954Z,397.17
2023-02-21T08:54:10.659Z,378.65
2023-02-21T08:56:37.336Z,341.75
2023-02-21T08:59:04.474Z,434.52
2023-02-21T09:01:34.557Z,395.60
2023-02-21T09:04:02.377Z,377.20
2023-02-21T09:06:29.052Z,405.45
2023-02-21T09:08:55.944Z,434.60
2023-02-21T09:11:22.875Z,426.48
2023-02-21T09:13:49.597Z,383.08
2023-02-21T09:16:16.293Z,391.98
2023-02-21T09:18:42.928Z,351.95
2023-02-21T09:21:09.603Z,363.75
2023-02-21T09:23:36.284Z,385.42
2023-02-21T09:26:03.248Z,407.58
2023-02-21T09:28:31.437Z,394.75
2023-02-21T09:30:58.077Z,365.70
2023-02-21T09:33:25.318Z,392.63
2023-02-21T09:35:53.816Z,400.38
2023-02-21T09:38:20.747Z,363.92
2023-02-21T09:41:07.649Z,340.05
2023-02-21T09:43:47.247Z,301.55
2023-02-21T09:46:24.953Z,298.85
2023-02-21T09:48:52.569Z,279.83
2023-02-21T09:51:19.265Z,289.90
2023-02-21T09:53:48.444Z,293.08
2023-02-21T09:56:50.696Z,307.30
2023-02-21T09:59:17.527Z,323.48
2023-02-21T10:01:55.097Z,267.85
2023-02-21T10:04:33.970Z,259.13
2023-02-21T10:07:06.241Z,269.85
2023-02-21T10:09:59.602Z,275.85
2023-02-21T10:12:35.605Z,306.20
2023-02-21T10:15:11.413Z,262.40
2023-02-21T10:18:00.977Z,291.40
2023-02-21T10:20:43.649Z,321.40
2023-02-21T10:23:27.219Z,320.27
2023-02-21T10:26:02.667Z,354.58
2023-02-21T10:28:29.457Z,305.27
2023-02-21T10:31:02.339Z,270.02
2023-02-21T10:33:30.454Z,299.83
2023-02-21T10:35:57.160Z,330.17
2023-02-21T10:38:26.540Z,316.00
2023-02-21T10:40:59.339Z,291.90
2023-02-21T10:43:48.345Z,284.35
2023-02-21T10:46:31.034Z,290.40
2023-02-21T10:49:20.493Z,323.65
2023-02-21T10:51:47.323Z,364.65
2023-02-21T10:54:25.371Z,369.55
2023-02-21T10:56:53.975Z,343.55
2023-02-21T10:59:27.737Z,347.83
2023-02-21T11:01:55.355Z,374.98
2023-02-21T11:04:22.448Z,414.13
2023-02-21T11:07:01.393Z,409.13
2023-02-21T11:09:27.966Z,422.33
2023-02-21T11:12:31.629Z,463.75
2023-02-21T11:14:58.233Z,601.97
2023-02-21T11:17:28.335Z,717.70
2023-02-21T11:19:57.501Z,730.25
2023-02-21T11:22:42.438Z,735.67
2023-02-21T11:25:12.606Z,569.97
2023-02-21T11:27:39.630Z,596.55
2023-02-21T11:30:21.099Z,576.40
2023-02-21T11:32:56.971Z,570.47
2023-02-21T11:35:35.208Z,434.13
2023-02-21T11:38:29.130Z,432.75
2023-02-21T11:40:56.193Z,459.15
2023-02-21T11:43:28.751Z,473.48
2023-02-21T11:46:16.579Z,482.75
2023-02-21T11:48:51.550Z,522.60
2023-02-21T11:53:52.374Z,519.33
2023-02-21T11:56:28.273Z,569.50
2023-02-21T11:59:04.142Z,620.20
2023-02-21T12:02:04.202Z,673.80
2023-02-21T12:05:01.967Z,547.92
2023-02-21T12:07:40.664Z,612.60
2023-02-21T12:10:41.418Z,536.47
2023-02-21T12:13:24.258Z,577.92
2023-02-21T12:16:33.696Z,529.20
2023-02-21T12:19:26.119Z,616.28
2023-02-21T12:22:14.817Z,563.40
2023-02-21T12:25:06.306Z,641.90
2023-02-21T12:27:53.826Z,609.13
2023-02-21T12:30:40.030Z,614.78
2023-02-21T12:33:16.828Z,497.80
2023-02-21T12:36:02.086Z,458.05
2023-02-21T12:38:46.410Z,419.85
2023-02-21T12:41:51.134Z,454.92
2023-02-21T12:45:01.871Z,518.28
2023-02-21T12:47:55.630Z,430.05
2023-02-21T12:50:26.316Z,452.73
2023-02-21T12:53:03.269Z,373.73
2023-02-21T12:55:45.787Z,388.67
2023-02-21T12:58:31.853Z,344.25
2023-02-21T13:01:23.277Z,336.55
2023-02-21T13:04:14.983Z,337.52
2023-02-21T13:07:25.054Z,351.10
2023-02-21T13:10:03.555Z,370.75
2023-02-21T13:12:45.253Z,351.63
2023-02-21T13:15:15.786Z,337.35
2023-02-21T13:17:44.735Z,329.83
2023-02-21T13:20:18.712Z,342.15
2023-02-21T13:23:38.484Z,358.42
2023-02-21T13:27:07.571Z,295.42
2023-02-21T13:29:39.129Z,293.65
2023-02-21T13:32:16.942Z,268.50
2023-02-21T13:34:47.436Z,240.48
2023-02-21T13:37:19.197Z,242.35
2023-02-21T13:39:54.286Z,263.33
2023-02-21T13:42:24.330Z,274.27
2023-02-21T13:45:12.317Z,268.65
2023-02-21T13:48:02.003Z,299.48
2023-02-21T13:50:38.338Z,277.60
2023-02-21T13:53:08.364Z,304.92
2023-02-21T13:55:36.732Z,297.35
2023-02-21T13:58:05.132Z,306.00
2023-02-21T14:00:31.817Z,297.83
2023-02-21T14:03:24.636Z,305.42
2023-02-21T14:05:51.257Z,283.65
2023-02-21T14:08:30.952Z,254.55
2023-02-21T14:11:06.846Z,240.10
2023-02-21T14:13:41.433Z,244.25
2023-02-21T14:16:08.217Z,251.40
2023-02-21T14:18:50.030Z,285.73
2023-02-21T14:21:22.470Z,267.25
2023-02-21T14:24:06.002Z,286.33
2023-02-21T14:26:56.749Z,297.90
2023-02-21T14:29:40.861Z,304.20
2023-02-21T14:32:17.829Z,322.90
2023-02-21T14:34:47.622Z,249.73
2023-02-21T14:37:36.580Z,248.63
2023-02-21T14:40:18.176Z,230.70
2023-02-21T14:43:22.496Z,236.75
2023-02-21T14:46:01.645Z,228.23
2023-02-21T14:48:57.693Z,231.02
2023-02-21T14:51:51.860Z,227.73
2023-02-21T14:54:50.041Z,217.25
2023-02-21T14:57:46.286Z,200.82
2023-02-21T15:00:18.837Z,229.00
2023-02-21T15:03:07.365Z,233.65
2023-02-21T15:05:42.313Z,228.25
2023-02-21T15:10:47.780Z,246.45
2023-02-21T15:13:24.856Z,231.73
2023-02-21T15:16:05.657Z,236.90
2023-02-21T15:18:41.069Z,221.57
2023-02-21T15:21:10.928Z,237.02
2023-02-21T15:23:46.110Z,237.90
2023-02-21T15:26:21.778Z,260.48
2023-02-21T15:29:12.150Z,268.10
2023-02-21T15:32:00.156Z,286.05
2023-02-21T15:34:38.161Z,272.77
2023-02-21T15:37:14.523Z,261.40
2023-02-21T15:39:44.961Z,251.50
2023-02-21T15:42:16.191Z,255.82
2023-02-21T15:44:48.663Z,269.48
2023-02-21T15:47:21.853Z,243.38
2023-02-21T15:50:08.873Z,248.43
2023-02-21T15:52:51.214Z,201.55
2023-02-21T15:55:20.795Z,180.70
2023-02-21T15:58:06.407Z,158.50
2023-02-21T16:00:39.647Z,168.55
2023-02-21T16:03:27.143Z,176.38
2023-02-21T16:06:15.413Z,176.52
2023-02-21T16:09:01.617Z,170.68
2023-02-21T16:11:56.451Z,155.20
2023-02-21T16:14:23.121Z,157.53
2023-02-21T16:17:05.507Z,165.85
2023-02-21T16:19:33.380Z,157.05
2023-02-21T16:22:18.408Z,177.57
2023-02-21T16:24:45.452Z,160.90
2023-02-21T16:27:16.703Z,174.00
2023-02-21T16:29:43.358Z,175.45
2023-02-21T16:32:19.956Z,168.20
2023-02-21T16:34:47.171Z,175.88
2023-02-21T16:37:14.678Z,171.95
2023-02-21T16:39:42.348Z,162.55
2023-02-21T16:42:09.035Z,172.35
2023-02-21T16:44:35.595Z,201.93
2023-02-21T16:47:02.241Z,206.77
2023-02-21T16:49:29.399Z,255.98
2023-02-21T16:51:56.054Z,249.00
2023-02-21T16:54:23.212Z,196.48
2023-02-21T16:56:52.221Z,231.55
2023-02-21T16:59:22.723Z,194.23
2023-02-21T17:01:49.569Z,234.30
2023-02-21T17:04:26.160Z,205.35
2023-02-21T17:06:56.185Z,207.88
2023-02-21T17:09:26.084Z,215.15
2023-02-21T17:11:53.261Z,223.82
2023-02-21T17:14:20.192Z,211.32
2023-02-21T17:16:47.736Z,219.43
2023-02-21T17:19:16.475Z,197.48
2023-02-21T17:21:43.676Z,211.30
2023-02-21T17:24:12.707Z,205.65
2023-02-21T17:26:39.732Z,206.27
2023-02-21T17:29:07.724Z,227.70
2023-02-21T17:31:34.601Z,304.42
2023-02-21T17:34:01.687Z,335.95
2023-02-21T17:36:29.104Z,369.45
2023-02-21T17:38:58.782Z,312.88
2023-02-21T17:41:27.429Z,391.40
2023-02-21T17:43:54.198Z,533.28
2023-02-21T17:46:21.298Z,497.98
2023-02-21T17:48:48.671Z,545.75
2023-02-21T17:51:24.377Z,526.13
2023-02-21T17:53:51.860Z,554.65
2023-02-21T17:56:21.091Z,563.65
2023-02-21T17:58:48.405Z,557.58
2023-02-21T18:01:19.483Z,570.60
2023-02-21T18:03:47.850Z,604.20
2023-02-21T18:06:15.783Z,566.47
2023-02-21T18:08:45.601Z,637.28
2023-02-21T18:11:14.327Z,587.97
2023-02-21T18:13:41.137Z,610.83
2023-02-21T18:16:08.657Z,605.83
2023-02-21T18:18:35.747Z,559.38
2023-02-21T18:21:02.430Z,573.25
2023-02-21T18:23:30.359Z,554.40
2023-02-21T18:25:57.307Z,474.33
2023-02-21T18:28:24.723Z,500.73
2023-02-21T18:30:51.976Z,435.67
2023-02-21T18:33:19.674Z,372.40
2023-02-21T18:35:46.310Z,490.17
2023-02-21T18:38:13.088Z,435.17
2023-02-21T18:40:44.851Z,504.85
2023-02-21T18:43:16.374Z,416.27
2023-02-21T18:45:42.952Z,522.10
2023-02-21T18:48:09.553Z,432.67
2023-02-21T18:50:36.637Z,369.92
2023-02-21T18:53:03.939Z,429.13
2023-02-21T18:55:30.695Z,435.17
2023-02-21T18:57:57.309Z,465.00
2023-02-21T19:00:24.132Z,433.42
2023-02-21T19:02:50.759Z,386.55
2023-02-21T19:05:21.549Z,320.48
2023-02-21T19:07:48.218Z,319.58
2023-02-21T19:10:18.078Z,292.15
2023-02-21T19:12:44.824Z,333.05
2023-02-21T19:15:11.449Z,299.67
2023-02-21T19:17:38.056Z,308.48
2023-02-21T19:20:05.951Z,341.52
2023-02-21T19:22:32.552Z,328.20
2023-02-21T19:24:59.180Z,344.35
2023-02-21T19:27:25.933Z,383.55
2023-02-21T19:29:53.270Z,361.23
2023-02-21T19:32:20.970Z,331.08
2023-02-21T19:34:50.157Z,441.60
2023-02-21T19:37:17.957Z,387.30
2023-02-21T19:39:44.802Z,354.42
2023-02-21T19:42:11.700Z,349.15
2023-02-21T19:44:38.322Z,275.88
2023-02-21T19:47:04.961Z,366.08
2023-02-21T19:49:31.675Z,305.42
2023-02-21T19:51:59.332Z,327.23
2023-02-21T19:54:30.038Z,295.85
2023-02-21T19:56:57.781Z,265.20
2023-02-21T19:59:26.875Z,302.85
2023-02-21T20:01:54.142Z,291.05
2023-02-21T20:04:21.308Z,301.00
2023-02-21T20:06:49.610Z,286.90
2023-02-21T20:09:17.064Z,239.25
2023-02-21T20:11:43.929Z,236.25
2023-02-21T20:14:11.574Z,335.27
2023-02-21T20:16:40.329Z,332.85
2023-02-21T20:19:07.453Z,323.52
2023-02-21T20:21:34.308Z,274.75
2023-02-21T20:24:01.563Z,258.67
2023-02-21T20:26:29.531Z,272.38
2023-02-21T20:28:56.549Z,224.88
2023-02-21T20:31:28.120Z,279.70
2023-02-21T20:33:55.378Z,309.42
2023-02-21T20:36:29.929Z,590.33
2023-02-21T20:38:56.738Z,276.77
2023-02-21T20:41:23.814Z,205.10
2023-02-21T20:43:50.404Z,219.93
2023-02-21T20:46:22.278Z,211.77
2023-02-21T20:48:49.424Z,177.40
2023-02-21T20:51:16.938Z,195.13
2023-02-21T20:53:46.216Z,218.90
2023-02-21T20:56:13.671Z,181.45
2023-02-21T20:58:40.585Z,189.68
2023-02-21T21:01:08.160Z,202.77
2023-02-21T21:03:35.781Z,227.23
2023-02-21T21:06:02.984Z,152.23
2023-02-21T21:08:29.724Z,180.13
2023-02-21T21:10:57.220Z,150.07
2023-02-21T21:13:24.619Z,158.10
2023-02-21T21:15:51.585Z,228.40
2023-02-21T21:18:18.314Z,143.50
2023-02-21T21:20:44.932Z,184.07
2023-02-21T21:23:11.592Z,134.02
2023-02-21T21:25:38.205Z,196.77
2023-02-21T21:28:06.203Z,130.20
2023-02-21T21:30:33.369Z,123.55
2023-02-21T21:33:00.806Z,137.90
2023-02-21T21:35:29.898Z,107.22
2023-02-21T21:37:57.909Z,106.97
2023-02-21T21:40:26.754Z,104.43
2023-02-21T21:42:54.697Z,127.32
2023-02-21T21:45:25.205Z,191.15
2023-02-21T21:47:54.261Z,221.48
2023-02-21T21:50:22.106Z,201.65
2023-02-21T21:52:51.731Z,286.80
2023-02-21T21:55:24.384Z,118.40
2023-02-21T21:57:55.739Z,144.80
2023-02-21T22:00:25.017Z,137.07
2023-02-21T22:02:57.386Z,112.82
2023-02-21T22:05:26.172Z,116.93
2023-02-21T22:07:53.889Z,114.93
2023-02-21T22:10:21.956Z,67.43
2023-02-21T22:12:51.818Z,62.92
2023-02-21T22:15:24.035Z,126.80
2023-02-21T22:17:51.384Z,98.05
2023-02-21T22:20:20.177Z,65.47
2023-02-21T22:22:48.943Z,42.80
2023-02-21T22:25:18.934Z,48.53
2023-02-21T22:27:47.865Z,51.45
2023-02-21T22:30:19.865Z,58.00
2023-02-21T22:32:47.756Z,71.65
2023-02-21T22:35:20.339Z,64.97
2023-02-21T22:37:50.440Z,70.53
2023-02-21T22:40:24.157Z,64.65
2023-02-21T22:42:55.972Z,52.00
2023-02-21T22:45:23.946Z,54.65
2023-02-21T22:47:52.631Z,46.83
2023-02-21T22:50:20.870Z,58.95
2023-02-21T22:53:03.548Z,54.75
2023-02-21T22:55:30.344Z,45.58
2023-02-21T22:57:59.046Z,50.40
2023-02-21T23:00:33.126Z,59.95
2023-02-21T23:03:01.826Z,50.05
2023-02-21T23:05:29.004Z,107.80
2023-02-21T23:07:59.917Z,56.72
2023-02-21T23:10:28.014Z,48.75
2023-02-21T23:12:58.024Z,68.10
2023-02-21T23:15:26.311Z,51.33
2023-02-21T23:17:53.976Z,70.55
2023-02-21T23:20:23.317Z,114.97
2023-02-21T23:22:53.696Z,159.50
2023-02-21T23:25:25.358Z,66.85
2023-02-21T23:27:56.827Z,142.55
2023-02-21T23:30:27.281Z,114.85
2023-02-21T23:32:55.630Z,90.70
2023-02-21T23:35:22.818Z,106.80
2023-02-21T23:37:53.021Z,105.18
2023-02-21T23:40:24.725Z,120.35
2023-02-21T23:42:54.485Z,113.88
2023-02-21T23:45:23.488Z,94.40
2023-02-21T23:47:52.871Z,105.90
2023-02-21T23:50:23.453Z,115.25
2023-02-21T23:52:53.412Z,114.07
2023-02-21T23:55:24.933Z,108.13
2023-02-21T23:57:52.737Z,120.97
